Time;durP1;ratioP1;P1;durP2;ratioP2;P2;SDS_P1;SDS_P2;PMS_P1;PMS_P2;Temp;Humidity;BMP_temperature;BMP_pressure;BME280_temperature;BME280_humidity;BME280_pressure;Samples;Min_cycle;Max_cycle;Signal;HPM_P1;HPM_P2
2022/10/07 00:01:22;;;;;;;12.43;2.28;;;12.40;99.90;;;;;;5031692;28;20032;-49
2022/10/07 00:03:48;;;;;;;10.73;1.77;;;12.40;99.90;;;;;;5031827;28;20045;-48
2022/10/07 00:06:19;;;;;;;15.73;1.95;;;12.40;99.90;;;;;;5031917;28;20550;-48
2022/10/07 00:08:46;;;;;;;10.52;1.25;;;12.50;99.90;;;;;;5031865;28;20092;-48
2022/10/07 00:11:21;;;;;;;10.15;3.03;;;12.50;99.90;;;;;;5031670;28;20033;-49
2022/10/07 00:13:51;;;;;;;13.15;2.20;;;12.50;99.90;;;;;;5031761;28;20091;-49
2022/10/07 00:16:20;;;;;;;10.43;1.58;;;12.60;99.90;;;;;;5031877;28;20060;-53
2022/10/07 00:18:50;;;;;;;19.13;1.77;;;12.60;99.90;;;;;;5031815;28;20032;-53
2022/10/07 00:21:17;;;;;;;13.43;2.20;;;12.70;99.90;;;;;;5031794;28;20258;-51
2022/10/07 00:23:44;;;;;;;14.80;2.10;;;12.80;99.90;;;;;;5031528;28;20021;-49
2022/10/07 00:26:12;;;;;;;6.75;1.85;;;12.90;99.90;;;;;;5031698;28;20037;-57
2022/10/07 00:28:38;;;;;;;11.68;1.83;;;13.00;99.90;;;;;;5031946;28;20026;-48
2022/10/07 00:31:16;;;;;;;11.27;1.70;;;13.00;99.90;;;;;;5031171;28;20049;-53
2022/10/07 00:33:42;;;;;;;15.90;2.33;;;13.10;99.90;;;;;;5029889;28;20026;-54
2022/10/07 00:36:11;;;;;;;11.70;1.70;;;13.20;99.90;;;;;;5031420;28;20033;-51
2022/10/07 00:38:37;;;;;;;9.02;1.70;;;13.40;99.90;;;;;;5031477;28;20030;-50
2022/10/07 00:41:03;;;;;;;10.35;1.52;;;13.40;99.90;;;;;;5031735;28;20344;-56
2022/10/07 00:43:31;;;;;;;14.18;2.20;;;13.50;99.90;;;;;;5031517;28;20560;-51
2022/10/07 00:46:02;;;;;;;12.68;1.80;;;13.60;99.90;;;;;;5031459;28;20082;-47
2022/10/07 00:48:30;;;;;;;11.18;1.63;;;13.80;99.90;;;;;;5031641;28;20100;-52
2022/10/07 00:50:59;;;;;;;12.00;1.80;;;13.80;99.90;;;;;;5031335;28;20029;-49
2022/10/07 00:53:29;;;;;;;8.87;2.00;;;13.90;99.90;;;;;;5031558;28;20074;-48
2022/10/07 00:55:56;;;;;;;;;;;14.00;99.90;;;;;;5031608;28;20025;-52
2022/10/07 00:58:23;;;;;;;13.90;1.92;;;14.00;99.90;;;;;;5031286;28;20043;-49
2022/10/07 01:00:49;;;;;;;10.30;1.55;;;14.10;99.90;;;;;;5029778;28;20029;-49
2022/10/07 01:03:15;;;;;;;12.75;1.70;;;14.10;99.90;;;;;;5030873;28;20547;-47
2022/10/07 01:05:42;;;;;;;10.85;1.50;;;14.10;99.90;;;;;;5030999;28;20021;-50
2022/10/07 01:08:08;;;;;;;12.98;1.65;;;14.10;99.90;;;;;;5029918;28;20040;-48
2022/10/07 01:11:12;;;;;;;13.75;2.08;;;14.20;99.90;;;;;;5031050;28;20021;-47
2022/10/07 01:14:17;;;;;;;17.80;2.03;;;14.20;99.90;;;;;;5019686;28;20494;-47
2022/10/07 01:16:50;;;;;;;14.90;2.20;;;14.20;99.90;;;;;;5029592;28;20132;-47
2022/10/07 01:19:35;;;;;;;10.57;1.83;;;14.10;99.90;;;;;;5017618;28;20030;-47
2022/10/07 01:22:12;;;;;;;17.95;2.70;;;14.10;99.90;;;;;;5030810;28;20072;-49
2022/10/07 01:25:12;;;;;;;11.05;2.00;;;14.10;99.90;;;;;;5030849;28;20021;-50
2022/10/07 01:27:42;;;;;;;13.65;1.92;;;14.10;99.90;;;;;;5030882;28;20071;-48
2022/10/07 01:30:08;;;;;;;14.65;2.15;;;14.10;99.90;;;;;;5030679;28;20448;-50
2022/10/07 01:32:39;;;;;;;14.30;1.85;;;14.10;99.90;;;;;;5030326;28;20028;-46
2022/10/07 01:35:12;;;;;;;12.35;1.80;;;14.10;99.90;;;;;;5033739;28;20563;-47
2022/10/07 01:37:43;;;;;;;14.27;1.77;;;14.10;99.90;;;;;;5022066;28;20032;-48
2022/10/07 01:40:13;;;;;;;12.65;1.85;;;14.10;99.90;;;;;;5029934;28;20053;-51
2022/10/07 01:42:40;;;;;;;6.00;1.33;;;14.10;99.90;;;;;;5030330;28;20018;-47
2022/10/07 01:45:09;;;;;;;13.77;1.88;;;14.10;99.90;;;;;;5029526;28;20507;-46
2022/10/07 01:47:35;;;;;;;11.77;2.30;;;14.10;99.90;;;;;;5029143;28;20029;-50
2022/10/07 01:50:01;;;;;;;14.30;2.70;;;14.00;99.90;;;;;;5029551;28;20033;-46
2022/10/07 01:52:50;;;;;;;11.25;1.83;;;14.10;99.90;;;;;;5029648;28;20029;-49
2022/10/07 01:55:27;;;;;;;12.88;2.05;;;14.00;99.90;;;;;;5028268;28;20021;-49
2022/10/07 01:58:19;;;;;;;16.73;2.13;;;14.10;99.90;;;;;;5029477;28;20025;-53
2022/10/07 02:00:51;;;;;;;11.98;1.95;;;14.10;99.90;;;;;;5029568;28;20029;-46
2022/10/07 02:03:32;;;;;;;12.85;2.08;;;14.10;99.90;;;;;;5029794;28;20480;-47
2022/10/07 02:06:19;;;;;;;12.00;2.20;;;14.10;99.90;;;;;;5025177;28;20504;-48
2022/10/07 02:08:49;;;;;;;10.52;1.80;;;14.10;99.90;;;;;;5012423;28;20065;-50
2022/10/07 02:11:17;;;;;;;8.98;1.50;;;14.10;99.90;;;;;;5029517;28;20103;-51
2022/10/07 02:14:10;;;;;;;8.25;1.48;;;14.10;99.90;;;;;;5030362;28;20025;-49
2022/10/07 02:17:17;;;;;;;12.05;1.50;;;14.00;99.90;;;;;;5029642;28;20017;-52
2022/10/07 02:19:55;;;;;;;10.63;1.60;;;14.00;99.90;;;;;;5028764;28;20120;-52
2022/10/07 02:22:24;;;;;;;9.25;1.45;;;14.00;99.90;;;;;;5032102;28;20431;-49
2022/10/07 02:24:54;;;;;;;7.13;1.60;;;13.90;99.90;;;;;;5033374;28;20033;-51
2022/10/07 02:27:24;;;;;;;11.93;1.58;;;13.90;99.90;;;;;;5032228;28;20128;-48
2022/10/07 02:29:52;;;;;;;11.55;1.83;;;13.80;99.90;;;;;;5033144;28;20025;-50
2022/10/07 02:32:22;;;;;;;8.55;1.65;;;13.80;99.90;;;;;;5033229;28;20480;-54
2022/10/07 02:35:01;;;;;;;11.75;1.75;;;13.80;99.90;;;;;;5032809;28;20108;-47
2022/10/07 02:37:32;;;;;;;11.85;1.95;;;13.80;99.90;;;;;;5029733;28;20026;-47
2022/10/07 02:39:58;;;;;;;16.55;2.10;;;13.80;99.90;;;;;;5032435;28;20116;-47
2022/10/07 02:42:28;;;;;;;9.00;1.95;;;13.90;99.90;;;;;;5031594;28;20429;-49
2022/10/07 02:45:18;;;;;;;11.80;1.90;;;13.90;99.90;;;;;;5031710;28;20026;-47
2022/10/07 02:48:05;;;;;;;14.40;2.20;;;13.90;99.90;;;;;;5029710;28;20123;-55
2022/10/07 02:50:37;;;;;;;11.23;1.95;;;13.90;99.90;;;;;;5031736;28;20022;-50
2022/10/07 02:53:05;;;;;;;14.07;1.90;;;13.90;99.90;;;;;;5030892;28;20029;-48
2022/10/07 02:55:31;;;;;;;12.35;2.03;;;13.90;99.90;;;;;;5032057;28;20036;-50
2022/10/07 02:58:01;;;;;;;9.85;1.60;;;14.00;99.90;;;;;;5032963;28;20037;-47
2022/10/07 03:00:31;;;;;;;;;;;14.00;99.90;;;;;;5033740;28;20033;-48
2022/10/07 03:03:01;;;;;;;14.27;2.25;;;14.00;99.90;;;;;;5032846;28;20390;-50
2022/10/07 03:05:28;;;;;;;13.07;2.28;;;14.00;99.90;;;;;;5033380;28;20034;-55
2022/10/07 03:08:03;;;;;;;11.25;1.83;;;13.90;99.90;;;;;;5032026;28;20039;-49
2022/10/07 03:10:29;;;;;;;11.60;1.98;;;14.00;99.90;;;;;;5032921;28;20095;-48
2022/10/07 03:12:55;;;;;;;12.80;1.55;;;14.00;99.90;;;;;;5032708;28;20415;-48
2022/10/07 03:15:22;;;;;;;13.45;2.20;;;13.90;99.90;;;;;;5032436;28;20029;-46
2022/10/07 03:17:48;;;;;;;11.63;2.10;;;13.90;99.90;;;;;;5032518;28;20429;-47
2022/10/07 03:20:14;;;;;;;14.85;1.90;;;13.90;99.90;;;;;;5032754;28;20060;-48
2022/10/07 03:22:43;;;;;;;9.55;1.52;;;13.90;99.90;;;;;;5033035;28;20034;-50
2022/10/07 03:25:12;;;;;;;10.40;2.55;;;13.90;99.90;;;;;;5031599;28;20125;-48
2022/10/07 03:27:38;;;;;;;9.60;1.75;;;13.90;99.90;;;;;;5032825;28;20065;-51
2022/10/07 03:30:05;;;;;;;11.00;1.92;;;13.90;99.90;;;;;;5033183;28;20128;-49
2022/10/07 03:32:31;;;;;;;14.38;2.42;;;13.90;99.90;;;;;;5031887;28;20036;-54
2022/10/07 03:34:57;;;;;;;8.38;1.85;;;13.90;99.90;;;;;;5032438;28;20022;-47
2022/10/07 03:37:23;;;;;;;10.82;1.50;;;13.90;99.90;;;;;;5032492;28;20424;-51
2022/10/07 03:39:51;;;;;;;9.55;1.60;;;13.90;99.90;;;;;;5032486;28;20021;-46
2022/10/07 03:42:16;;;;;;;8.07;1.55;;;13.90;99.90;;;;;;5032833;28;20052;-47
2022/10/07 03:44:42;;;;;;;8.23;1.60;;;13.90;99.90;;;;;;5032436;28;20504;-51
2022/10/07 03:47:08;;;;;;;13.77;2.00;;;13.90;99.90;;;;;;5032463;28;20080;-50
2022/10/07 03:49:34;;;;;;;14.75;2.40;;;13.90;99.90;;;;;;5032347;28;20381;-49
2022/10/07 03:52:01;;;;;;;10.52;1.55;;;13.90;99.90;;;;;;5032583;28;20026;-47
2022/10/07 03:54:27;;;;;;;13.88;1.80;;;13.90;99.90;;;;;;5032300;28;20029;-49
2022/10/07 03:56:53;;;;;;;9.45;1.63;;;13.90;99.90;;;;;;5032434;28;20029;-48
2022/10/07 03:59:19;;;;;;;11.43;1.80;;;14.00;99.90;;;;;;5032419;28;20460;-49
2022/10/07 04:01:44;;;;;;;10.23;1.67;;;14.00;99.90;;;;;;5032135;28;20037;-50
2022/10/07 04:04:10;;;;;;;12.10;1.88;;;14.00;99.90;;;;;;5031837;28;20456;-52
2022/10/07 04:06:37;;;;;;;9.07;1.40;;;14.00;99.90;;;;;;5031424;28;20443;-54
2022/10/07 04:09:04;;;;;;;13.90;1.90;;;13.90;99.90;;;;;;5030587;28;20026;-50
2022/10/07 04:11:30;;;;;;;8.68;1.80;;;13.90;99.90;;;;;;5032023;28;20025;-48
2022/10/07 04:13:59;;;;;;;7.05;1.45;;;13.90;99.90;;;;;;5031958;28;20384;-48
2022/10/07 04:16:26;;;;;;;14.25;1.90;;;13.90;99.90;;;;;;5032108;28;20029;-48
2022/10/07 04:18:54;;;;;;;13.65;1.60;;;13.80;99.90;;;;;;5031984;28;20060;-49
2022/10/07 04:21:21;;;;;;;9.32;1.70;;;13.80;99.90;;;;;;5032045;28;20110;-49
2022/10/07 04:23:46;;;;;;;12.27;2.05;;;13.70;99.90;;;;;;5031523;28;20026;-50
2022/10/07 04:26:12;;;;;;;10.57;1.92;;;13.60;99.90;;;;;;5031770;28;20037;-49
2022/10/07 04:28:38;;;;;;;10.90;2.17;;;13.50;99.90;;;;;;5031617;28;20029;-54
2022/10/07 04:31:07;;;;;;;12.77;1.92;;;13.50;99.90;;;;;;5031807;28;20025;-52
2022/10/07 04:33:33;;;;;;;14.63;2.37;;;13.50;99.90;;;;;;5031406;28;20134;-51
2022/10/07 04:36:08;;;;;;;13.93;2.30;;;13.40;99.90;;;;;;5031551;28;20028;-51
2022/10/07 04:38:34;;;;;;;14.75;2.33;;;13.40;99.90;;;;;;5031804;28;20104;-48
2022/10/07 04:41:06;;;;;;;12.93;1.73;;;13.40;99.90;;;;;;5031487;28;20440;-51
2022/10/07 04:43:32;;;;;;;12.85;2.47;;;13.30;99.90;;;;;;5030588;28;20026;-49
2022/10/07 04:46:04;;;;;;;11.38;2.13;;;13.30;99.90;;;;;;5031432;28;20497;-50
2022/10/07 04:48:30;;;;;;;13.88;1.83;;;13.30;99.90;;;;;;5031470;28;20021;-48
2022/10/07 04:51:01;;;;;;;12.98;2.33;;;13.20;99.90;;;;;;5030094;28;20025;-50
2022/10/07 04:53:27;;;;;;;15.70;1.85;;;13.20;99.90;;;;;;5031504;28;20472;-49
2022/10/07 04:55:53;;;;;;;8.23;1.77;;;13.20;99.90;;;;;;5031257;28;20079;-48
2022/10/07 04:58:19;;;;;;;10.18;2.08;;;13.10;99.90;;;;;;5031502;28;20068;-50
2022/10/07 05:00:47;;;;;;;15.70;2.10;;;13.10;99.90;;;;;;5031284;28;20025;-51
2022/10/07 05:03:14;;;;;;;17.13;2.03;;;13.20;99.90;;;;;;5030572;28;20041;-50
2022/10/07 05:05:42;;;;;;;10.02;1.67;;;13.20;99.90;;;;;;5030784;28;20037;-49
2022/10/07 05:08:08;;;;;;;14.82;1.98;;;13.20;99.90;;;;;;5031064;28;20045;-54
2022/10/07 05:10:38;;;;;;;9.07;1.65;;;13.20;99.90;;;;;;5031106;28;20021;-48
2022/10/07 05:13:11;;;;;;;10.00;1.92;;;13.30;99.90;;;;;;5030904;28;20039;-50
2022/10/07 05:15:46;;;;;;;12.95;1.80;;;13.30;99.90;;;;;;5031097;28;20387;-50
2022/10/07 05:18:12;;;;;;;11.88;1.58;;;13.30;99.90;;;;;;5030915;28;20108;-49
2022/10/07 05:20:39;;;;;;;10.80;1.55;;;13.20;99.90;;;;;;5031324;28;20116;-52
2022/10/07 05:23:05;;;;;;;8.93;1.73;;;13.20;99.90;;;;;;5030841;28;20384;-52
2022/10/07 05:25:30;;;;;;;9.52;1.75;;;13.20;99.90;;;;;;5030917;28;20116;-48
2022/10/07 05:27:56;;;;;;;10.18;1.70;;;13.20;99.90;;;;;;5031064;28;20100;-50
2022/10/07 05:30:22;;;;;;;9.00;1.35;;;13.20;99.90;;;;;;5030934;28;20093;-47
2022/10/07 05:32:48;;;;;;;11.65;1.80;;;13.20;99.90;;;;;;5030698;28;20420;-48
2022/10/07 05:35:14;;;;;;;11.25;1.58;;;13.20;99.90;;;;;;5030992;28;20038;-54
2022/10/07 05:37:40;;;;;;;14.85;1.75;;;13.10;99.90;;;;;;5030861;28;20032;-51
2022/10/07 05:40:06;;;;;;;10.43;1.90;;;13.20;99.90;;;;;;5030766;28;20481;-53
2022/10/07 05:42:31;;;;;;;11.82;1.98;;;13.10;99.90;;;;;;5030694;28;20105;-48
2022/10/07 05:44:57;;;;;;;10.98;1.80;;;13.10;99.90;;;;;;5030691;28;20117;-49
2022/10/07 05:47:23;;;;;;;12.15;1.40;;;13.10;99.90;;;;;;5030557;28;20120;-53
2022/10/07 05:49:48;;;;;;;9.85;2.10;;;13.00;99.90;;;;;;5030877;28;20021;-50
2022/10/07 05:52:14;;;;;;;11.30;1.48;;;13.00;99.90;;;;;;5030811;28;20030;-52
2022/10/07 05:54:39;;;;;;;11.15;1.98;;;12.90;99.90;;;;;;5032516;28;20381;-47
2022/10/07 05:57:05;;;;;;;17.52;2.00;;;12.90;99.90;;;;;;5034609;28;20435;-47
2022/10/07 05:59:31;;;;;;;10.90;1.80;;;12.80;99.90;;;;;;5034538;28;20036;-51
2022/10/07 06:01:58;;;;;;;11.65;1.83;;;12.80;99.90;;;;;;5034535;28;20024;-50
2022/10/07 06:04:25;;;;;;;9.85;1.92;;;12.80;99.90;;;;;;5033788;28;20053;-47
2022/10/07 06:06:51;;;;;;;13.32;1.85;;;12.80;99.90;;;;;;5033964;28;20485;-49
2022/10/07 06:14:45;;;;;;;9.82;2.03;;;12.70;99.90;;;;;;5034315;28;20110;-48
2022/10/07 06:17:11;;;;;;;10.75;1.52;;;12.70;99.90;;;;;;5034570;28;20461;-51
2022/10/07 06:19:36;;;;;;;15.60;1.90;;;12.70;99.90;;;;;;5034353;28;20018;-48
2022/10/07 06:22:02;;;;;;;11.18;1.90;;;12.70;99.90;;;;;;5032769;28;20087;-49
2022/10/07 06:24:28;;;;;;;8.30;1.77;;;12.70;99.90;;;;;;5033740;28;20068;-48
2022/10/07 06:26:54;;;;;;;7.90;1.75;;;12.80;99.90;;;;;;5034054;28;20075;-48
2022/10/07 06:29:20;;;;;;;7.18;1.55;;;12.80;99.90;;;;;;5033840;28;20481;-47
2022/10/07 06:31:46;;;;;;;9.07;1.70;;;12.80;99.90;;;;;;5033702;28;20025;-47
2022/10/07 06:34:12;;;;;;;11.65;1.70;;;12.90;99.90;;;;;;5033423;28;20033;-48
2022/10/07 06:36:37;;;;;;;8.77;1.65;;;12.90;99.90;;;;;;5033791;28;20048;-47
2022/10/07 06:39:03;;;;;;;10.70;1.63;;;12.90;99.90;;;;;;5033474;28;20079;-49
2022/10/07 06:41:29;;;;;;;10.25;2.15;;;13.00;99.90;;;;;;5020454;28;20037;-48
2022/10/07 06:43:59;;;;;;;8.55;1.75;;;13.00;99.90;;;;;;5033818;28;20112;-50
2022/10/07 06:46:25;;;;;;;6.22;1.75;;;13.10;99.90;;;;;;5033276;28;20126;-50
2022/10/07 06:48:51;;;;;;;12.02;1.80;;;13.20;99.90;;;;;;5033544;28;20124;-50
2022/10/07 06:51:19;;;;;;;10.07;1.38;;;13.30;99.90;;;;;;5033366;28;20080;-52
2022/10/07 06:53:45;;;;;;;8.20;1.85;;;13.30;99.90;;;;;;5032989;28;20476;-53
2022/10/07 06:56:12;;;;;;;9.50;1.60;;;13.40;99.90;;;;;;5033458;28;20110;-51
2022/10/07 06:58:38;;;;;;;9.15;1.67;;;13.40;99.90;;;;;;5032121;28;20353;-51
2022/10/07 07:01:04;;;;;;;12.55;2.10;;;13.60;99.90;;;;;;5031842;28;20476;-49
2022/10/07 07:03:31;;;;;;;16.50;2.80;;;13.60;99.90;;;;;;5025613;28;20052;-51
2022/10/07 07:05:56;;;;;;;7.57;1.50;;;13.70;99.90;;;;;;5031974;28;20044;-50
2022/10/07 07:08:27;;;;;;;10.70;1.50;;;13.80;99.90;;;;;;5031723;28;20030;-56
2022/10/07 07:10:54;;;;;;;10.07;1.90;;;13.80;99.90;;;;;;5033737;28;20031;-50
2022/10/07 07:13:21;;;;;;;10.35;1.77;;;13.90;99.90;;;;;;5033053;28;20067;-47
2022/10/07 07:15:57;;;;;;;8.77;1.75;;;14.00;99.90;;;;;;5032772;28;20499;-49
2022/10/07 07:18:23;;;;;;;12.07;1.92;;;14.00;99.90;;;;;;5032582;28;20072;-49
2022/10/07 07:20:49;;;;;;;12.18;1.80;;;14.10;99.90;;;;;;5032343;28;20026;-50
2022/10/07 07:23:14;;;;;;;9.55;1.67;;;14.20;99.90;;;;;;5032053;28;20031;-55
2022/10/07 07:25:44;;;;;;;10.60;1.60;;;14.30;99.90;;;;;;5031993;28;20034;-52
2022/10/07 07:28:12;;;;;;;11.02;1.83;;;14.40;99.90;;;;;;5031022;28;20025;-48
2022/10/07 07:30:38;;;;;;;8.82;1.40;;;14.40;99.90;;;;;;5032192;28;20028;-51
2022/10/07 07:33:04;;;;;;;7.68;1.42;;;14.50;99.90;;;;;;5032159;28;20038;-50
2022/10/07 07:35:31;;;;;;;7.28;1.50;;;14.60;99.90;;;;;;5032179;28;20021;-50
2022/10/07 07:37:58;;;;;;;7.60;1.33;;;14.60;99.90;;;;;;5031305;28;20029;-47
2022/10/07 07:40:25;;;;;;;13.32;1.63;;;14.80;99.90;;;;;;5031643;28;20036;-48
2022/10/07 07:42:51;;;;;;;9.85;1.75;;;14.80;99.90;;;;;;5032378;28;20025;-48
2022/10/07 07:45:17;;;;;;;11.30;1.60;;;14.90;99.90;;;;;;5032035;28;20024;-49
2022/10/07 07:47:45;;;;;;;9.07;2.55;;;15.00;99.90;;;;;;5032071;28;20068;-48
2022/10/07 07:50:11;;;;;;;9.65;1.70;;;15.00;99.90;;;;;;5030958;28;20033;-47
2022/10/07 07:52:37;;;;;;;9.95;1.70;;;15.20;99.90;;;;;;5032332;28;20082;-49
2022/10/07 07:55:03;;;;;;;14.50;2.35;;;15.40;99.90;;;;;;5032185;28;20108;-49
2022/10/07 07:57:29;;;;;;;10.43;1.48;;;15.60;99.90;;;;;;5030715;28;20027;-49
2022/10/07 07:59:57;;;;;;;9.32;1.75;;;15.80;99.90;;;;;;5031338;28;20179;-47
2022/10/07 08:02:22;;;;;;;7.65;1.40;;;16.10;99.90;;;;;;5030810;28;20072;-50
2022/10/07 08:04:48;;;;;;;12.48;2.30;;;16.50;99.90;;;;;;5031396;28;20053;-53
2022/10/07 08:07:14;;;;;;;10.70;1.60;;;17.20;99.90;;;;;;5030594;28;20095;-47
2022/10/07 08:09:40;;;;;;;10.18;1.52;;;17.70;99.90;;;;;;5031673;28;20014;-55
2022/10/07 08:12:06;;;;;;;6.75;1.20;;;18.20;99.90;;;;;;5029033;28;20025;-52
2022/10/07 08:14:32;;;;;;;6.05;1.15;;;18.60;99.90;;;;;;5031567;28;20439;-47
2022/10/07 08:16:58;;;;;;;8.10;1.45;;;18.90;99.90;;;;;;5031604;28;20083;-49
2022/10/07 08:19:25;;;;;;;8.65;1.25;;;19.60;99.90;;;;;;5031815;28;20491;-47
2022/10/07 08:21:51;;;;;;;8.80;1.85;;;20.30;99.90;;;;;;5031158;28;20064;-54
2022/10/07 08:24:17;;;;;;;7.22;1.25;;;20.60;99.90;;;;;;5030521;28;20033;-48
2022/10/07 08:26:43;;;;;;;7.35;1.30;;;20.60;99.90;;;;;;5031122;28;20037;-47
2022/10/07 08:29:09;;;;;;;6.07;1.17;;;20.60;99.90;;;;;;5031245;28;20041;-51
2022/10/07 08:31:35;;;;;;;6.70;1.27;;;20.60;99.90;;;;;;5030657;28;20468;-49
2022/10/07 08:34:02;;;;;;;9.23;1.60;;;20.40;99.90;;;;;;5030296;28;20017;-48
2022/10/07 08:36:31;;;;;;;9.35;1.50;;;19.80;99.90;;;;;;5030130;28;20079;-52
2022/10/07 08:38:57;;;;;;;8.73;1.38;;;19.10;99.90;;;;;;5031318;28;20222;-50
2022/10/07 08:41:56;;;;;;;9.40;1.45;;;18.60;99.90;;;;;;5031165;28;20086;-48
2022/10/07 08:44:33;;;;;;;7.95;1.63;;;17.90;99.90;;;;;;5029950;28;20017;-49
2022/10/07 08:47:33;;;;;;;7.10;1.23;;;17.40;99.90;;;;;;5029657;28;20042;-52
2022/10/07 08:50:05;;;;;;;8.65;1.13;;;16.80;99.90;;;;;;5030249;28;20467;-51
2022/10/07 08:52:36;;;;;;;8.57;1.63;;;16.50;99.90;;;;;;5031138;28;20067;-49
2022/10/07 08:55:08;;;;;;;8.32;1.50;;;16.30;99.90;;;;;;5030993;28;20083;-53
2022/10/07 08:58:04;;;;;;;7.20;1.20;;;16.20;99.90;;;;;;5030685;28;20036;-49
2022/10/07 09:00:43;;;;;;;2.85;0.80;;;16.00;99.90;;;;;;5030137;28;20030;-47
2022/10/07 09:03:23;;;;;;;4.20;1.02;;;15.90;99.90;;;;;;5030626;28;20049;-50
2022/10/07 09:05:50;;;;;;;8.05;1.25;;;15.90;99.90;;;;;;5030744;28;20045;-48
2022/10/07 09:08:27;;;;;;;2.63;1.00;;;15.90;99.90;;;;;;5029287;28;20104;-47
2022/10/07 09:10:57;;;;;;;4.28;0.90;;;15.90;99.90;;;;;;5030649;28;20075;-50
2022/10/07 09:13:28;;;;;;;4.93;0.90;;;16.10;99.90;;;;;;5030640;28;20045;-47
2022/10/07 09:16:28;;;;;;;4.70;1.25;;;16.20;99.90;;;;;;5030473;28;20039;-47
2022/10/07 09:18:58;;;;;;;4.43;1.15;;;16.20;99.90;;;;;;5018316;28;20057;-51
2022/10/07 09:21:30;;;;;;;7.22;1.25;;;16.20;99.90;;;;;;5030423;28;20127;-49
2022/10/07 09:24:09;;;;;;;9.15;1.67;;;16.10;99.90;;;;;;5027990;28;20017;-51
2022/10/07 09:26:35;;;;;;;9.07;1.15;;;16.00;99.90;;;;;;5030692;28;20056;-48
2022/10/07 09:29:01;;;;;;;6.82;1.10;;;15.80;99.90;;;;;;5029988;28;20030;-47
2022/10/07 09:31:27;;;;;;;10.38;1.30;;;15.60;99.90;;;;;;5030307;28;20395;-49
2022/10/07 09:33:54;;;;;;;7.35;1.35;;;15.60;99.90;;;;;;5029970;28;20018;-52
2022/10/07 09:36:20;;;;;;;8.20;1.58;;;15.60;99.90;;;;;;5027413;28;20053;-47
2022/10/07 09:38:51;;;;;;;8.23;1.40;;;15.80;99.90;;;;;;5030888;28;20037;-54
2022/10/07 09:41:34;;;;;;;8.85;1.30;;;16.00;99.90;;;;;;5017253;28;20048;-48
2022/10/07 09:44:05;;;;;;;8.65;1.67;;;16.20;99.90;;;;;;5030060;28;20026;-47
2022/10/07 09:46:49;;;;;;;8.45;1.67;;;16.50;99.90;;;;;;5030025;28;20412;-47
2022/10/07 09:49:27;;;;;;;9.85;1.73;;;16.80;99.90;;;;;;5030418;28;20026;-48
2022/10/07 09:52:02;;;;;;;9.15;1.83;;;17.20;99.90;;;;;;5028683;28;20018;-49
2022/10/07 09:54:30;;;;;;;8.77;1.88;;;17.60;99.90;;;;;;5027848;28;20144;-50
2022/10/07 09:56:58;;;;;;;8.02;2.35;;;17.50;99.90;;;;;;5029344;28;20010;-48
2022/10/07 09:59:29;;;;;;;10.82;2.03;;;17.20;99.90;;;;;;5027745;28;20028;-54
2022/10/07 10:02:13;;;;;;;15.05;3.22;;;16.90;99.90;;;;;;5029760;28;20511;-52
2022/10/07 10:04:49;;;;;;;9.65;1.75;;;16.70;99.90;;;;;;5029487;28;20142;-52
2022/10/07 10:07:31;;;;;;;10.55;2.10;;;16.60;99.90;;;;;;5029377;28;20040;-48
2022/10/07 10:10:02;;;;;;;10.25;2.13;;;16.60;99.90;;;;;;5029466;28;20595;-47
2022/10/07 10:12:32;;;;;;;10.13;2.10;;;16.60;99.90;;;;;;5029170;28;20504;-56
2022/10/07 10:14:59;;;;;;;8.77;2.10;;;16.70;99.90;;;;;;5027828;28;20033;-47
2022/10/07 10:17:35;;;;;;;7.50;1.35;;;16.60;99.90;;;;;;5029973;28;20029;-47
2022/10/07 10:20:27;;;;;;;8.43;1.80;;;16.70;99.90;;;;;;5033895;28;20102;-47
2022/10/07 10:22:53;;;;;;;9.73;2.00;;;16.80;99.90;;;;;;5029254;28;20076;-48
2022/10/07 10:28:22;;;;;;;3.72;1.23;;;17.50;99.90;;;;;;5045726;28;20047;-50
2022/10/07 10:30:58;;;;;;;7.47;1.15;;;17.70;99.90;;;;;;5042527;28;20777;-52
2022/10/07 10:33:35;;;;;;;5.93;1.23;;;17.60;99.90;;;;;;5034153;28;20033;-49
2022/10/07 10:36:15;;;;;;;6.68;0.95;;;17.60;99.90;;;;;;5033568;28;20018;-51
2022/10/07 10:38:50;;;;;;;5.95;1.20;;;17.40;99.90;;;;;;5033896;28;20472;-52
2022/10/07 10:41:28;;;;;;;5.60;1.42;;;17.20;99.90;;;;;;5024685;28;20508;-48
2022/10/07 10:44:08;;;;;;;8.40;1.27;;;17.00;99.90;;;;;;5039522;28;20064;-48
2022/10/07 10:47:12;;;;;;;9.20;1.50;;;16.90;99.90;;;;;;5035873;28;20283;-48
2022/10/07 10:49:44;;;;;;;8.25;1.38;;;16.70;99.90;;;;;;5010484;28;20370;-48
2022/10/07 10:52:31;;;;;;;9.48;1.30;;;16.80;99.90;;;;;;5036472;28;20397;-55
2022/10/07 10:55:18;;;;;;;4.30;1.00;;;16.80;99.90;;;;;;5033629;28;20017;-47
2022/10/07 10:58:14;;;;;;;2.63;0.70;;;16.80;99.90;;;;;;5032905;28;20022;-48
2022/10/07 11:01:04;;;;;;;4.68;0.73;;;16.80;99.90;;;;;;5033112;28;20090;-47
2022/10/07 11:03:49;;;;;;;;;;;16.90;99.90;;;;;;5029169;28;20046;-48
2022/10/07 11:06:17;;;;;;;3.60;0.80;;;16.90;99.90;;;;;;5032915;28;19917;-47
2022/10/07 11:08:43;;;;;;;2.13;0.55;;;17.20;99.90;;;;;;5033106;28;20121;-47
2022/10/07 11:11:15;;;;;;;1.65;0.60;;;17.30;99.90;;;;;;5028337;28;20044;-48
2022/10/07 11:13:51;;;;;;;3.30;0.77;;;17.40;99.90;;;;;;5029277;28;20033;-53
2022/10/07 11:16:42;;;;;;;3.10;0.60;;;17.40;99.90;;;;;;5032878;28;20091;-49
2022/10/07 11:19:11;;;;;;;1.65;0.60;;;17.40;99.90;;;;;;5030037;28;20037;-50
2022/10/07 11:21:41;;;;;;;4.73;0.90;;;17.40;99.90;;;;;;5035081;28;20017;-45
2022/10/07 11:24:09;;;;;;;5.72;0.90;;;17.40;99.90;;;;;;5032928;28;20377;-51
2022/10/07 11:26:40;;;;;;;5.38;1.00;;;17.60;99.90;;;;;;5037321;28;20043;-48
2022/10/07 11:29:14;;;;;;;3.42;1.00;;;17.90;99.90;;;;;;5034417;28;20084;-49
2022/10/07 11:31:46;;;;;;;4.55;1.08;;;18.10;99.90;;;;;;5040416;28;20025;-45
2022/10/07 11:34:17;;;;;;;4.45;1.35;;;18.70;99.90;;;;;;5030250;28;20025;-49
2022/10/07 11:37:01;;;;;;;3.85;0.90;;;19.50;99.90;;;;;;5030574;28;20101;-50
2022/10/07 11:39:27;;;;;;;4.22;0.88;;;20.00;99.90;;;;;;5031253;28;20140;-47
2022/10/07 11:42:24;;;;;;;4.68;0.90;;;19.90;99.90;;;;;;5030987;28;20049;-46
2022/10/07 11:44:53;;;;;;;7.60;1.17;;;19.20;99.90;;;;;;5030299;28;20097;-52
2022/10/07 11:47:25;;;;;;;6.40;1.17;;;18.60;99.90;;;;;;5031908;28;20103;-46
2022/10/07 11:50:06;;;;;;;9.05;1.30;;;18.10;99.90;;;;;;5030189;28;20104;-49
2022/10/07 11:52:37;;;;;;;7.68;1.08;;;17.90;99.90;;;;;;5031836;28;20524;-48
2022/10/07 11:55:11;;;;;;;11.40;1.40;;;18.20;99.90;;;;;;5029369;28;20048;-46
2022/10/07 11:57:42;;;;;;;6.72;1.10;;;19.10;99.90;;;;;;5031735;28;20101;-47
2022/10/07 12:00:21;;;;;;;7.97;1.13;;;19.60;99.90;;;;;;5028390;28;20072;-47
2022/10/07 12:02:48;;;;;;;7.18;1.35;;;20.30;99.90;;;;;;5031099;28;20035;-47
2022/10/07 12:05:35;;;;;;;8.40;1.17;;;20.40;99.90;;;;;;5031489;28;20037;-47
2022/10/07 12:08:23;;;;;;;3.63;0.93;;;20.60;99.90;;;;;;5032158;28;20065;-46
2022/10/07 12:10:53;;;;;;;7.97;1.10;;;22.80;99.90;;;;;;5032461;28;20083;-47
2022/10/07 12:13:19;;;;;;;5.45;1.10;;;21.70;99.90;;;;;;5031923;28;20025;-49
2022/10/07 12:15:46;;;;;;;4.35;1.10;;;22.00;99.90;;;;;;5032006;28;20032;-46
2022/10/07 12:18:14;;;;;;;7.07;1.23;;;24.50;99.90;;;;;;5031889;28;20029;-51
2022/10/07 12:20:49;;;;;;;4.57;0.90;;;21.60;99.90;;;;;;5030424;28;20112;-54
2022/10/07 12:25:55;;;;;;;6.55;1.13;;;20.30;99.90;;;;;;5031669;28;20036;-48
2022/10/07 12:28:40;;;;;;;6.72;1.48;;;19.50;99.90;;;;;;5032102;28;20099;-47
2022/10/07 12:31:14;;;;;;;5.68;1.30;;;18.80;99.90;;;;;;5031311;28;20036;-51
2022/10/07 12:33:46;;;;;;;6.88;1.20;;;18.30;99.90;;;;;;5031587;28;20120;-53
2022/10/07 12:36:17;;;;;;;9.48;1.35;;;18.20;99.90;;;;;;5028202;28;20029;-49
2022/10/07 12:39:06;;;;;;;10.52;1.60;;;18.30;99.90;;;;;;5031639;28;20029;-47
2022/10/07 12:41:35;;;;;;;10.60;1.42;;;18.30;99.90;;;;;;5020162;28;20034;-50
2022/10/07 12:44:19;;;;;;;3.00;0.90;;;18.60;99.90;;;;;;5031533;28;20036;-48
2022/10/07 12:47:09;;;;;;;5.13;0.98;;;18.80;99.90;;;;;;5031553;28;20030;-47
2022/10/07 12:49:57;;;;;;;6.72;1.40;;;19.00;99.90;;;;;;5031482;28;20025;-49
2022/10/07 12:52:32;;;;;;;6.28;1.20;;;19.20;99.90;;;;;;5031651;28;20060;-51
2022/10/07 12:55:18;;;;;;;8.10;1.08;;;19.00;99.90;;;;;;5031457;28;20095;-46
2022/10/07 12:57:51;;;;;;;7.95;1.50;;;18.80;99.90;;;;;;5031100;28;20539;-50
2022/10/07 13:00:23;;;;;;;8.02;1.00;;;19.30;99.90;;;;;;5030891;28;20033;-53
2022/10/07 13:03:07;;;;;;;6.13;1.17;;;19.70;99.90;;;;;;5029692;28;20037;-52
2022/10/07 13:05:54;;;;;;;8.77;1.30;;;19.70;99.90;;;;;;5029746;28;20370;-49
2022/10/07 13:08:35;;;;;;;6.63;1.30;;;20.00;99.90;;;;;;5030739;28;20029;-49
2022/10/07 13:11:25;;;;;;;7.63;1.20;;;20.20;99.90;;;;;;5031024;28;20021;-54
2022/10/07 13:14:15;;;;;;;9.00;1.70;;;20.10;99.90;;;;;;5023469;28;20033;-53
2022/10/07 13:17:02;;;;;;;8.18;1.70;;;19.90;99.90;;;;;;5030526;28;20021;-53